Time;durP1;ratioP1;P1;durP2;ratioP2;P2;SDS_P1;SDS_P2;PMS_P1;PMS_P2;Temp;Humidity;BMP_temperature;BMP_pressure;BME280_temperature;BME280_humidity;BME280_pressure;Samples;Min_cycle;Max_cycle;Signal;HPM_P1;HPM_P2
2023/10/22 00:01:00;;;;;;;1.13;1.00;;;12.20;99.90;;;-141.84;95.00;16362.41;4967145;28;20247;-60
2023/10/22 00:03:28;;;;;;;1.83;1.15;;;12.20;99.90;;;-141.84;95.66;17268.13;4983644;28;20242;-59
2023/10/22 00:05:56;;;;;;;1.10;1.00;;;12.20;99.90;;;-141.84;96.41;19791.47;4976354;28;20738;-61
2023/10/22 00:08:25;;;;;;;1.98;1.08;;;12.20;99.90;;;-141.84;96.70;23565.34;4983410;28;20286;-60
2023/10/22 00:10:53;;;;;;;1.40;1.15;;;12.20;99.90;;;-141.84;96.99;25663.28;4984446;28;20762;-60
2023/10/22 00:13:21;;;;;;;1.33;1.23;;;12.30;99.90;;;-141.84;96.91;27088.34;4983750;28;20310;-60
2023/10/22 00:15:49;;;;;;;1.40;0.95;;;12.20;99.90;;;-141.84;96.74;24961.13;4984331;28;20318;-60
2023/10/22 00:18:19;;;;;;;1.20;1.00;;;12.20;99.90;;;-141.84;97.01;27796.97;4975878;28;20230;-60
2023/10/22 00:20:47;;;;;;;1.60;1.08;;;12.20;99.90;;;-141.84;97.76;35155.75;4983263;28;20326;-60
2023/10/22 00:23:16;;;;;;;2.63;1.30;;;12.10;99.90;;;-141.84;98.27;42610.09;4983073;28;20234;-61
2023/10/22 00:25:44;;;;;;;1.02;1.00;;;12.10;99.90;;;-141.84;98.67;48632.88;4984022;28;20223;-60
2023/10/22 00:28:12;;;;;;;1.45;1.23;;;12.10;99.90;;;-141.84;99.09;54140.00;4975767;28;20591;-60
2023/10/22 00:30:40;;;;;;;1.27;1.10;;;12.10;99.90;;;-141.84;99.23;57815.66;4983325;28;20270;-60
2023/10/22 00:33:08;;;;;;;2.17;1.20;;;12.10;99.90;;;-141.84;99.09;57027.72;4984102;28;20298;-60
2023/10/22 00:35:38;;;;;;;1.25;1.10;;;12.10;99.90;;;-141.84;99.32;58603.75;4982902;28;20235;-59
2023/10/22 00:38:07;;;;;;;1.20;1.10;;;12.10;99.90;;;-141.84;99.20;59391.97;4974558;28;20227;-60
2023/10/22 00:40:35;;;;;;;2.30;1.38;;;12.10;99.90;;;-141.84;99.39;61494.72;4984278;28;20330;-58
2023/10/22 00:43:06;;;;;;;1.58;1.42;;;12.10;99.90;;;-141.84;99.24;61231.81;4983337;28;20231;-59
2023/10/22 00:45:39;;;;;;;1.65;1.20;;;12.10;99.90;;;-141.84;98.82;56502.53;4983698;28;20693;-60
2023/10/22 00:48:09;;;;;;;1.67;1.30;;;12.20;99.90;;;-141.84;98.91;57027.72;4975686;28;20231;-60
2023/10/22 00:50:40;;;;;;;2.35;1.30;;;12.10;99.90;;;-141.84;98.78;57027.72;4983481;28;20694;-60
2023/10/22 00:53:10;;;;;;;1.83;1.30;;;12.20;99.90;;;-141.84;99.09;60443.22;4982359;28;20273;-60
2023/10/22 00:55:42;;;;;;;1.10;1.00;;;12.10;99.90;;;-141.84;99.20;60968.94;4975197;28;20251;-60
2023/10/22 00:58:11;;;;;;;1.50;1.40;;;12.20;99.90;;;-141.84;99.25;62020.59;4961424;28;20309;-59
2023/10/22 01:00:40;;;;;;;1.42;1.20;;;12.20;99.90;;;-141.84;98.92;60180.38;4983084;28;20239;-62
2023/10/22 01:03:08;;;;;;;3.25;1.70;;;12.20;99.90;;;-141.84;99.31;63072.50;4983575;28;20569;-60
2023/10/22 01:05:38;;;;;;;1.60;1.50;;;12.10;99.90;;;-141.84;98.20;56502.53;4982886;28;20234;-60
2023/10/22 01:08:07;;;;;;;1.38;1.27;;;12.20;99.90;;;-141.84;97.84;49157.03;4973965;28;20439;-60
2023/10/22 01:10:35;;;;;;;1.30;1.20;;;12.20;99.90;;;-141.84;97.83;48108.81;4983137;28;20266;-60
2023/10/22 01:13:04;;;;;;;1.92;1.30;;;12.10;99.90;;;-141.84;98.43;53352.78;4983018;28;20306;-59
2023/10/22 01:15:33;;;;;;;2.67;1.65;;;12.10;99.90;;;-141.84;98.85;59129.22;4984066;28;20207;-61
2023/10/22 01:18:03;;;;;;;1.75;1.30;;;12.10;99.90;;;-141.84;99.34;63335.53;4975494;28;20239;-59
2023/10/22 01:20:32;;;;;;;2.38;1.60;;;12.00;99.90;;;-141.84;99.98;68336.31;4983489;28;20297;-61
2023/10/22 01:23:02;;;;;;;1.50;1.20;;;12.00;99.90;;;-141.84;99.85;69126.50;4982016;28;20277;-59
2023/10/22 01:25:31;;;;;;;1.90;1.33;;;12.00;99.90;;;-141.84;99.98;70443.78;4983068;28;20667;-59
2023/10/22 01:28:00;;;;;;;2.60;1.63;;;11.90;99.90;;;-141.84;100.00;72288.75;4975682;28;20397;-59
2023/10/22 01:30:28;;;;;;;2.30;1.30;;;11.90;99.90;;;-141.84;100.00;73343.38;4982823;28;20243;-61
2023/10/22 01:32:56;;;;;;;1.30;1.20;;;11.80;99.90;;;-141.84;100.00;74925.88;4982532;28;20314;-59
2023/10/22 01:35:24;;;;;;;1.48;1.30;;;11.80;99.90;;;-141.84;100.00;76245.09;4983215;28;20228;-60
2023/10/22 01:37:53;;;;;;;2.92;1.30;;;11.70;99.90;;;-141.84;100.00;77828.72;4982222;28;20310;-60
2023/10/22 01:40:21;;;;;;;3.58;1.50;;;11.70;99.90;;;-141.84;100.00;79412.97;4980937;28;20312;-59
2023/10/22 01:42:51;;;;;;;1.30;1.20;;;11.70;99.90;;;-141.84;100.00;81790.53;4982787;28;20302;-60
2023/10/22 01:45:21;;;;;;;2.77;1.20;;;11.60;99.90;;;-141.84;100.00;83112.00;4983974;28;20318;-60
2023/10/22 01:47:50;;;;;;;1.45;1.30;;;11.60;99.90;;;-141.84;100.00;84698.34;4982939;28;20227;-60
2023/10/22 01:50:19;;;;;;;1.20;1.10;;;11.60;99.90;;;-141.84;100.00;86020.75;4975693;28;20589;-60
2023/10/22 01:52:47;;;;;;;2.40;1.10;;;11.60;99.90;;;-141.84;100.00;87872.91;4982266;28;20243;-59
2023/10/22 01:55:15;;;;;;;1.90;1.17;;;11.60;99.90;;;-141.84;100.00;88931.63;4981956;28;20678;-60
2023/10/22 01:57:44;;;;;;;1.88;1.33;;;11.50;99.90;;;-141.84;100.00;90255.47;4982652;28;20318;-60
2023/10/22 02:00:14;;;;;;;1.48;1.30;;;11.50;99.90;;;-141.84;100.00;91314.81;4975193;28;20211;-61
2023/10/22 02:02:43;;;;;;;2.35;1.50;;;11.50;99.90;;;-141.84;100.00;92109.53;4983263;28;20743;-61
2023/10/22 02:05:12;;;;;;;2.22;1.77;;;11.60;99.90;;;-141.84;100.00;91579.72;4983483;28;20228;-61
2023/10/22 02:07:40;;;;;;;1.60;1.08;;;11.60;99.90;;;-141.84;100.00;91844.63;4982213;28;20794;-60
2023/10/22 02:10:09;;;;;;;2.40;1.50;;;11.60;99.90;;;-141.84;100.00;92639.44;4975024;28;20297;-60
2023/10/22 02:12:36;;;;;;;1.30;1.20;;;11.60;99.90;;;-141.84;100.00;93699.44;4983133;28;20586;-60
2023/10/22 02:15:07;;;;;;;1.93;1.30;;;11.50;99.90;;;-141.84;100.00;95024.81;4967185;28;20242;-60
2023/10/22 02:17:37;;;;;;;2.47;1.30;;;11.50;99.90;;;-141.84;100.00;96350.63;4982270;28;20250;-59
2023/10/22 02:20:08;;;;;;;2.15;1.40;;;11.50;99.90;;;-141.84;100.00;97942.19;4978176;28;20663;-60
2023/10/22 02:22:38;;;;;;;2.83;1.33;;;11.50;99.90;;;-141.84;100.00;97942.19;4986178;28;20721;-60
2023/10/22 02:25:07;;;;;;;2.95;1.60;;;11.60;99.90;;;-141.84;100.00;97411.59;4986228;28;20337;-58
2023/10/22 02:27:36;;;;;;;1.65;1.40;;;11.60;99.90;;;-141.84;100.00;96615.84;4986895;28;20313;-60
2023/10/22 02:30:07;;;;;;;1.60;1.50;;;11.60;99.90;;;-141.84;100.00;96615.84;4978457;28;20702;-61
2023/10/22 02:32:36;;;;;;;3.45;1.45;;;11.60;99.90;;;-141.84;100.00;97146.31;4986649;28;20266;-59
2023/10/22 02:35:06;;;;;;;2.80;1.40;;;11.60;99.90;;;-141.84;100.00;97942.19;4986325;28;20382;-60
2023/10/22 02:37:35;;;;;;;3.70;1.85;;;11.50;99.90;;;-141.84;100.00;99003.56;4981230;28;20263;-60
2023/10/22 02:40:04;;;;;;;2.28;1.40;;;11.60;99.90;;;-141.84;100.00;99003.56;4975226;28;20232;-60
2023/10/22 02:42:32;;;;;;;3.03;1.63;;;11.60;99.90;;;-141.84;100.00;99268.97;4967219;28;20299;-60
2023/10/22 02:45:00;;;;;;;2.28;1.55;;;11.50;99.90;;;-141.84;100.00;100065.22;4972242;28;20239;-59
2023/10/22 02:47:28;;;;;;;5.60;1.85;;;11.50;99.90;;;-141.84;100.00;100596.16;4981022;28;20238;-60
2023/10/22 02:49:58;;;;;;;2.30;1.90;;;11.50;99.90;;;-141.84;100.00;99003.56;4978484;28;20235;-60
2023/10/22 02:52:27;;;;;;;2.10;1.70;;;11.50;99.90;;;-141.84;100.00;98472.84;4985286;28;20238;-59
2023/10/22 02:54:56;;;;;;;2.45;1.73;;;11.40;99.90;;;-141.84;100.00;99268.97;4981037;28;20208;-61
2023/10/22 02:57:24;;;;;;;1.60;1.50;;;11.40;99.90;;;-141.84;100.00;99799.78;4966816;28;20232;-60
2023/10/22 02:59:52;;;;;;;2.10;1.60;;;11.50;99.90;;;-141.84;100.00;100330.69;4983706;28;20227;-60
2023/10/22 03:02:20;;;;;;;1.70;1.60;;;11.40;99.90;;;-141.84;100.00;100861.66;4982028;28;20330;-60
2023/10/22 03:04:50;;;;;;;2.28;1.63;;;11.40;99.90;;;-141.84;100.00;101392.69;4985880;28;20847;-60
2023/10/22 03:07:19;;;;;;;3.35;1.65;;;11.40;99.90;;;-141.84;100.00;101658.25;4985283;28;20273;-61
2023/10/22 03:09:47;;;;;;;1.90;1.80;;;11.30;99.90;;;-141.84;100.00;102455.00;4985085;28;20306;-61
2023/10/22 03:12:16;;;;;;;2.93;1.80;;;11.30;99.90;;;-141.84;100.00;102455.00;4978826;28;21125;-61
2023/10/22 03:14:44;;;;;;;1.88;1.65;;;11.30;99.90;;;-141.84;100.00;103251.88;4985359;28;20231;-60
2023/10/22 03:17:12;;;;;;;2.20;1.50;;;11.30;99.90;;;-141.84;100.00;102986.25;4984897;28;20271;-59
2023/10/22 03:19:42;;;;;;;1.70;1.53;;;11.30;99.90;;;-141.84;100.00;102189.38;4984838;28;20326;-60
2023/10/22 03:22:11;;;;;;;1.70;1.60;;;11.30;99.90;;;-141.84;100.00;102189.38;4976798;28;20223;-60
2023/10/22 03:24:41;;;;;;;3.05;1.67;;;11.20;99.90;;;-141.84;100.00;101923.81;4984685;28;20527;-61
2023/10/22 03:27:10;;;;;;;1.50;1.40;;;11.20;99.90;;;-141.84;100.00;101923.81;4985683;28;20239;-60
2023/10/22 03:29:38;;;;;;;2.17;1.40;;;11.10;99.90;;;-141.84;100.00;102189.38;4984788;28;20301;-60
2023/10/22 03:32:08;;;;;;;2.40;1.70;;;11.10;99.90;;;-141.84;100.00;102986.25;4959302;28;20704;-60
2023/10/22 03:34:36;;;;;;;2.20;1.50;;;11.10;99.90;;;-141.84;100.00;102986.25;4973558;28;20231;-60
2023/10/22 03:37:05;;;;;;;2.40;1.40;;;11.10;99.90;;;-141.84;100.00;103251.88;4984564;28;20235;-60
2023/10/22 03:39:33;;;;;;;3.00;1.70;;;11.10;99.90;;;-141.84;100.00;104048.94;4985042;28;20274;-60
2023/10/22 03:42:03;;;;;;;2.17;1.60;;;11.00;99.90;;;-141.84;100.00;104580.41;4976728;28;20310;-61
2023/10/22 03:44:31;;;;;;;1.90;1.40;;;11.10;99.90;;;-141.84;100.00;104846.16;4984954;28;20263;-60
2023/10/22 03:47:00;;;;;;;1.50;1.35;;;11.10;99.90;;;-141.84;100.00;105377.72;4984939;28;20485;-61
2023/10/22 03:49:28;;;;;;;3.67;1.70;;;11.10;99.90;;;-141.84;100.00;106175.19;4985274;28;20223;-60
2023/10/22 03:51:56;;;;;;;1.55;1.38;;;11.10;99.90;;;-141.84;100.00;106175.19;4976996;28;20211;-61
2023/10/22 03:54:24;;;;;;;1.98;1.50;;;11.10;99.90;;;-141.84;100.00;106175.19;4984983;28;20266;-60
2023/10/22 03:56:53;;;;;;;2.17;1.42;;;11.10;99.90;;;-141.84;100.00;106441.06;4982688;28;20227;-60
2023/10/22 03:59:22;;;;;;;2.40;1.50;;;11.10;99.90;;;-141.84;100.00;106706.94;4984147;28;20227;-61
2023/10/22 04:01:51;;;;;;;2.73;1.70;;;11.10;99.90;;;-141.84;100.00;106972.81;4984773;28;20312;-61
2023/10/22 04:04:19;;;;;;;2.83;1.90;;;11.10;99.90;;;-141.84;100.00;107238.72;4978234;28;20245;-60
2023/10/22 04:06:48;;;;;;;2.10;1.60;;;11.10;99.90;;;-141.84;100.00;107504.66;4984129;28;20202;-60
2023/10/22 04:09:16;;;;;;;2.10;1.60;;;11.00;99.90;;;-141.84;100.00;108036.56;4985354;28;20307;-60
2023/10/22 04:11:44;;;;;;;3.00;1.60;;;11.10;99.90;;;-141.84;100.00;107238.72;4984233;28;20670;-60
2023/10/22 04:14:12;;;;;;;1.70;1.57;;;11.10;99.90;;;-141.84;100.00;106706.94;4976516;28;20227;-60
2023/10/22 04:16:42;;;;;;;1.83;1.50;;;11.10;99.90;;;-141.84;100.00;106441.06;4984402;28;20227;-60
2023/10/22 04:19:10;;;;;;;2.05;1.60;;;11.00;99.90;;;-141.84;100.00;105909.34;4984736;28;20241;-61
2023/10/22 04:21:39;;;;;;;2.60;1.83;;;11.00;99.90;;;-141.84;100.00;106175.19;4983952;28;20238;-59
2023/10/22 04:24:09;;;;;;;1.87;1.60;;;11.00;99.90;;;-141.84;100.00;105909.34;4977010;28;20219;-59
2023/10/22 04:26:37;;;;;;;1.83;1.50;;;11.00;99.90;;;-141.84;100.00;105909.34;4984156;28;20234;-60
2023/10/22 04:29:06;;;;;;;1.73;1.40;;;10.90;99.90;;;-141.84;100.00;106175.19;4983222;28;20641;-60
2023/10/22 04:31:34;;;;;;;1.50;1.40;;;10.90;99.90;;;-141.84;100.00;106441.06;4983574;28;20259;-60
2023/10/22 04:34:04;;;;;;;2.08;1.42;;;10.90;99.90;;;-141.84;100.00;106706.94;4975584;28;20319;-60
2023/10/22 04:36:32;;;;;;;2.17;1.50;;;10.90;99.90;;;-141.84;100.00;107238.72;4982887;28;20250;-60
2023/10/22 04:39:00;;;;;;;1.47;1.23;;;10.90;99.90;;;-141.84;100.00;107770.63;4983773;28;20653;-61
2023/10/22 04:41:28;;;;;;;2.70;1.40;;;10.80;99.90;;;-141.84;100.00;108036.56;4983581;28;20706;-60
2023/10/22 04:43:57;;;;;;;1.60;1.50;;;10.90;99.90;;;-141.84;100.00;108036.56;4977125;28;20315;-62
2023/10/22 04:46:26;;;;;;;2.13;1.40;;;10.80;99.90;;;-141.84;100.00;108568.56;4983488;28;20265;-60
2023/10/22 04:48:54;;;;;;;2.55;1.40;;;10.90;99.90;;;-141.84;100.00;108036.56;4983246;28;20298;-60
2023/10/22 04:51:24;;;;;;;4.40;1.97;;;10.90;99.90;;;-141.84;100.00;107770.63;4983723;28;20239;-60
2023/10/22 04:53:52;;;;;;;3.30;1.60;;;10.80;99.90;;;-141.84;100.00;108036.56;4982963;28;20273;-60
2023/10/22 04:56:20;;;;;;;2.77;1.63;;;10.90;99.90;;;-141.84;100.00;107770.63;4978191;28;20235;-60
2023/10/22 04:58:49;;;;;;;2.67;1.60;;;10.90;99.90;;;-141.84;100.00;107770.63;4983195;28;20263;-60
2023/10/22 05:01:18;;;;;;;1.53;1.43;;;10.80;99.90;;;-141.84;100.00;107238.72;4982046;28;20314;-59
2023/10/22 05:03:46;;;;;;;2.13;1.40;;;10.80;99.90;;;-141.84;100.00;106972.81;4982132;28;20211;-59
2023/10/22 05:06:15;;;;;;;2.80;1.70;;;10.80;99.90;;;-141.84;100.00;106972.81;4976118;28;20211;-60
2023/10/22 05:08:44;;;;;;;1.60;1.50;;;10.80;99.90;;;-141.84;100.00;107238.72;4983589;28;20239;-60
2023/10/22 05:11:16;;;;;;;1.73;1.63;;;10.80;99.90;;;-141.84;100.00;107238.72;4983140;28;20231;-61
2023/10/22 05:13:45;;;;;;;3.10;1.87;;;10.80;99.90;;;-141.84;100.00;107504.66;4983114;28;20992;-60
2023/10/22 05:16:13;;;;;;;3.38;1.58;;;10.70;99.90;;;-141.84;100.00;107504.66;4974967;28;20307;-60
2023/10/22 05:18:42;;;;;;;2.03;1.40;;;10.70;99.90;;;-141.84;100.00;107504.66;4982887;28;20254;-60
2023/10/22 05:21:10;;;;;;;1.90;1.70;;;10.70;99.90;;;-141.84;100.00;107770.63;4983490;28;20203;-60
2023/10/22 05:23:38;;;;;;;3.20;1.67;;;10.70;99.90;;;-141.84;100.00;107770.63;4982912;28;20238;-59
2023/10/22 05:26:11;;;;;;;1.97;1.60;;;10.70;99.90;;;-141.84;100.00;108036.56;4975654;28;20809;-60
2023/10/22 05:28:39;;;;;;;1.80;1.33;;;10.60;99.90;;;-141.84;100.00;107770.63;4963077;28;20322;-62
2023/10/22 05:31:15;;;;;;;1.75;1.65;;;10.60;99.90;;;-141.84;100.00;108036.56;4974776;28;20234;-60
2023/10/22 05:33:44;;;;;;;3.23;1.63;;;10.60;99.90;;;-141.84;100.00;108302.56;4982724;28;20242;-60
2023/10/22 05:36:16;;;;;;;3.22;1.75;;;10.60;99.90;;;-141.84;100.00;108568.56;4975193;28;20282;-60
2023/10/22 05:38:45;;;;;;;2.65;1.77;;;10.60;99.90;;;-141.84;100.00;107770.63;4982831;28;20243;-60
2023/10/22 05:41:21;;;;;;;2.90;1.93;;;10.70;99.90;;;-141.84;100.00;106706.94;4982654;28;20227;-59
2023/10/22 05:43:50;;;;;;;2.03;1.70;;;10.70;99.90;;;-141.84;100.00;105909.34;4982718;28;20219;-60
2023/10/22 05:46:18;;;;;;;2.17;1.63;;;10.60;99.90;;;-141.84;100.00;105909.34;4975344;28;20330;-59
2023/10/22 05:48:46;;;;;;;3.03;1.85;;;10.70;99.90;;;-141.84;100.00;105909.34;4985751;28;20265;-59
2023/10/22 05:51:15;;;;;;;4.00;1.87;;;10.60;99.90;;;-141.84;100.00;105909.34;4986842;28;20602;-60
2023/10/22 05:53:43;;;;;;;3.80;2.00;;;10.70;99.90;;;-141.84;100.00;105643.53;4986601;28;20618;-61
2023/10/22 05:56:11;;;;;;;4.43;2.20;;;10.70;99.90;;;-141.84;100.00;105643.53;4978494;28;20275;-61
2023/10/22 05:58:41;;;;;;;1.87;1.73;;;10.70;99.90;;;-141.84;100.00;105111.94;4986074;28;20656;-60
2023/10/22 06:01:10;;;;;;;2.78;1.80;;;10.70;99.90;;;-141.84;100.00;104580.41;4986487;28;20715;-60
2023/10/22 06:03:39;;;;;;;2.87;2.00;;;10.90;99.90;;;-141.84;100.00;104048.94;4986624;28;20211;-59
2023/10/22 06:06:07;;;;;;;2.00;1.80;;;10.80;99.90;;;-141.84;100.00;103251.88;4979949;28;20294;-60
2023/10/22 06:08:36;;;;;;;2.10;2.00;;;10.80;99.90;;;-141.84;100.00;102720.59;4986012;28;20293;-59
2023/10/22 06:11:04;;;;;;;4.13;2.35;;;10.90;99.90;;;-141.84;100.00;101392.69;4986529;28;20660;-60
2023/10/22 06:13:33;;;;;;;2.47;2.10;;;10.90;99.90;;;-141.84;100.00;98738.19;4985690;28;20785;-60
2023/10/22 06:16:02;;;;;;;1.90;1.70;;;11.00;99.90;;;-141.84;100.00;97676.88;4973649;28;20230;-61
2023/10/22 06:18:31;;;;;;;3.03;2.13;;;11.00;99.90;;;-141.84;100.00;93434.41;4985210;28;20223;-60
2023/10/22 06:20:59;;;;;;;2.73;1.87;;;11.10;99.90;;;-141.84;99.63;83112.00;4985613;28;20290;-59
2023/10/22 06:23:27;;;;;;;2.47;2.27;;;11.10;99.90;;;-141.84;99.03;77036.81;4985967;28;20219;-61
2023/10/22 06:25:56;;;;;;;2.10;1.97;;;11.20;99.90;;;-141.84;97.65;67809.63;4982088;28;20754;-59
2023/10/22 06:28:24;;;;;;;3.83;1.87;;;11.10;99.90;;;-141.84;97.55;66756.44;4985462;28;20231;-60
2023/10/22 06:30:52;;;;;;;1.77;1.67;;;11.30;99.90;;;-141.84;97.08;60706.06;4984789;28;20219;-60
2023/10/22 06:33:21;;;;;;;2.60;2.00;;;11.40;99.90;;;-141.84;97.83;66229.97;4986073;28;20294;-61
2023/10/22 06:35:50;;;;;;;3.08;1.77;;;11.40;99.90;;;-141.84;97.39;66229.97;4985999;28;20253;-59
2023/10/22 06:38:18;;;;;;;2.53;2.10;;;11.40;99.90;;;-141.84;97.35;63598.59;4978471;28;20261;-59
2023/10/22 06:40:45;;;;;;;5.32;2.10;;;11.50;99.90;;;-141.84;97.56;64914.06;4986013;28;20326;-60
2023/10/22 06:43:13;;;;;;;3.97;2.25;;;11.50;99.90;;;-141.84;97.74;66756.44;4985940;28;20298;-61
2023/10/22 06:45:41;;;;;;;3.63;2.40;;;11.60;99.90;;;-141.84;96.95;61757.66;4985360;28;20239;-60
2023/10/22 06:48:10;;;;;;;2.65;1.92;;;11.60;99.90;;;-141.84;96.46;54664.88;4978792;28;20727;-62
2023/10/22 06:50:43;;;;;;;2.40;2.20;;;11.60;99.90;;;-141.84;96.63;56502.53;4985863;28;20263;-60
2023/10/22 06:53:11;;;;;;;2.53;2.20;;;11.60;99.90;;;-141.84;96.75;58866.47;4985662;28;20778;-60
2023/10/22 06:55:42;;;;;;;3.92;2.22;;;11.70;99.90;;;-141.84;96.67;56502.53;4985746;28;20263;-60
2023/10/22 06:58:10;;;;;;;3.63;2.28;;;11.70;99.90;;;-141.84;94.56;34009.22;4978212;28;20765;-60
2023/10/22 07:00:39;;;;;;;3.58;2.17;;;11.70;99.90;;;-141.84;94.57;32551.06;4984437;28;20575;-60
2023/10/22 07:03:07;;;;;;;2.45;2.20;;;11.80;99.90;;;-141.84;94.78;33923.56;4966541;28;20589;-61
2023/10/22 07:05:35;;;;;;;2.28;2.00;;;11.80;99.90;;;-141.84;94.89;36425.03;4981118;28;20263;-60
2023/10/22 07:08:05;;;;;;;3.20;2.38;;;11.80;99.90;;;-141.84;95.06;38687.13;4978659;28;20277;-60
2023/10/22 07:10:33;;;;;;;5.32;2.47;;;11.80;99.90;;;-141.84;94.68;32954.81;4985959;28;20322;-60
2023/10/22 07:13:01;;;;;;;2.95;2.50;;;11.80;99.90;;;-141.84;94.53;32214.66;4985855;28;20330;-61
2023/10/22 07:15:29;;;;;;;4.55;2.42;;;11.80;99.90;;;-141.84;94.55;30567.63;4984952;28;20591;-60
2023/10/22 07:17:58;;;;;;;4.15;2.10;;;11.80;99.90;;;-141.84;94.45;28705.38;4977621;28;20231;-60
2023/10/22 07:20:26;;;;;;;3.13;2.10;;;11.80;99.90;;;-141.84;94.18;26697.41;4984693;28;20239;-60
2023/10/22 07:22:54;;;;;;;3.03;2.13;;;11.90;99.90;;;-141.84;93.35;22273.78;4984737;28;20789;-61
2023/10/22 07:25:24;;;;;;;3.88;2.30;;;11.90;99.90;;;-141.84;91.20;16697.44;4984585;28;20259;-61
2023/10/22 07:27:53;;;;;;;3.83;2.40;;;11.90;99.90;;;-141.84;90.75;16441.59;4985486;28;20295;-61
2023/10/22 07:30:21;;;;;;;3.03;2.17;;;12.00;99.90;;;-141.84;89.59;16486.25;4979229;28;20282;-60
2023/10/22 07:32:51;;;;;;;3.33;2.20;;;12.00;99.90;;;-141.84;87.74;16819.28;4984966;28;20902;-60
2023/10/22 07:35:20;;;;;;;4.50;2.40;;;12.10;99.90;;;-141.84;88.35;16634.50;4984309;28;20660;-61
2023/10/22 07:37:48;;;;;;;2.40;2.10;;;12.10;99.90;;;-141.84;88.32;16634.50;4977447;28;20250;-61
2023/10/22 07:40:18;;;;;;;4.25;1.85;;;12.20;99.90;;;-141.84;88.95;16510.63;4976991;28;20279;-60
2023/10/22 07:42:48;;;;;;;4.72;2.55;;;12.30;99.90;;;-141.84;89.20;16478.13;4984563;28;20208;-60
2023/10/22 07:45:17;;;;;;;2.72;2.53;;;12.30;99.90;;;-141.84;89.28;16415.19;4984190;28;20247;-60
2023/10/22 07:47:45;;;;;;;3.85;2.20;;;12.40;99.90;;;-141.84;89.41;16472.03;4984174;28;20841;-61
2023/10/22 07:50:13;;;;;;;2.75;2.22;;;12.40;99.90;;;-141.84;88.67;16532.97;4977141;28;20456;-60
2023/10/22 07:52:41;;;;;;;2.47;2.25;;;12.50;99.90;;;-141.84;88.05;16644.66;4984673;28;20278;-60
2023/10/22 07:55:09;;;;;;;2.33;2.10;;;12.60;99.90;;;-141.84;86.36;17142.22;4984718;28;20231;-59
2023/10/22 07:57:38;;;;;;;2.63;2.00;;;12.60;99.90;;;-141.84;84.95;17641.84;4984666;28;20239;-61
2023/10/22 08:00:09;;;;;;;2.00;1.80;;;12.50;99.90;;;-141.84;83.62;18046.09;4975988;28;20301;-62
2023/10/22 08:02:38;;;;;;;2.97;2.00;;;12.60;99.90;;;-141.84;83.35;18216.72;4984083;28;20722;-60
2023/10/22 08:05:07;;;;;;;2.28;2.00;;;12.60;99.90;;;-141.84;83.08;18200.47;4983978;28;20683;-61
2023/10/22 08:07:35;;;;;;;4.03;2.10;;;12.60;99.90;;;-141.84;82.42;18434.13;4984518;28;20311;-60
2023/10/22 08:10:04;;;;;;;2.92;1.98;;;12.60;99.90;;;-141.84;83.50;18066.41;4977395;28;20235;-60
2023/10/22 08:12:32;;;;;;;2.03;1.83;;;12.60;99.90;;;-141.84;82.73;18332.53;4984006;28;20295;-61
2023/10/22 08:15:00;;;;;;;3.45;1.83;;;12.50;99.90;;;-141.84;82.40;18434.13;4982521;28;20485;-60
2023/10/22 08:17:30;;;;;;;2.72;1.75;;;12.60;99.90;;;-141.84;82.57;18338.63;4983533;28;20234;-60
2023/10/22 08:19:58;;;;;;;2.00;1.70;;;12.60;99.90;;;-141.84;82.74;18310.19;4976958;28;20235;-61
2023/10/22 08:22:26;;;;;;;2.78;1.98;;;12.60;99.90;;;-141.84;81.67;18651.50;4984268;28;20239;-59
2023/10/22 08:24:54;;;;;;;3.40;1.75;;;12.80;99.90;;;-141.84;80.76;18891.25;4979441;28;20211;-61
2023/10/22 08:27:22;;;;;;;4.07;1.88;;;13.00;99.90;;;-141.84;80.69;18897.34;4983151;28;20706;-65
2023/10/22 08:29:51;;;;;;;3.47;1.92;;;13.10;99.90;;;-141.84;80.44;18952.22;4983393;28;20227;-60
2023/10/22 08:32:19;;;;;;;4.13;1.80;;;13.30;99.90;;;-141.84;78.36;19277.34;4975067;28;20297;-59
2023/10/22 08:34:49;;;;;;;2.28;1.85;;;13.40;99.90;;;-141.84;78.41;19301.72;4973579;28;20240;-60
2023/10/22 08:37:17;;;;;;;4.25;1.50;;;13.50;99.90;;;-141.84;77.22;19419.59;4968571;28;20616;-60
2023/10/22 08:39:45;;;;;;;1.88;1.67;;;13.70;99.90;;;-141.84;76.21;19472.41;4982409;28;20235;-61
2023/10/22 08:42:19;;;;;;;3.08;1.77;;;13.70;99.90;;;-141.84;75.97;19478.50;4976308;28;20286;-59
2023/10/22 08:44:48;;;;;;;2.83;1.90;;;13.80;99.90;;;-141.84;76.21;19470.38;4984034;28;20238;-60
2023/10/22 08:47:17;;;;;;;3.05;1.50;;;13.80;99.90;;;-141.84;74.59;19580.13;4984012;28;20355;-61
2023/10/22 08:49:51;;;;;;;2.20;1.52;;;13.90;99.90;;;-141.84;75.21;19563.88;4983175;28;20310;-60
2023/10/22 08:52:19;;;;;;;3.25;1.70;;;14.00;99.90;;;-141.84;75.78;19492.75;4976958;28;20746;-60
2023/10/22 08:54:48;;;;;;;2.00;1.50;;;14.00;99.90;;;-141.84;75.03;19559.81;4982709;28;20707;-61
2023/10/22 08:57:17;;;;;;;2.65;1.80;;;14.00;99.90;;;-141.84;73.20;19639.06;4984317;28;20203;-61
2023/10/22 08:59:47;;;;;;;2.33;1.70;;;14.20;99.90;;;-141.84;72.48;19683.78;4983416;28;20283;-61
2023/10/22 09:02:21;;;;;;;2.42;1.40;;;14.40;99.90;;;-141.84;72.20;19698.00;4975337;28;20235;-60
2023/10/22 09:04:50;;;;;;;2.97;2.00;;;14.40;99.90;;;-141.84;71.80;19677.66;4983437;28;20227;-60
2023/10/22 09:07:19;;;;;;;2.03;1.70;;;14.40;99.90;;;-141.84;72.06;19714.25;4983426;28;20277;-61
2023/10/22 09:09:47;;;;;;;1.80;1.50;;;14.50;99.90;;;-141.84;71.36;19720.34;4982785;28;20215;-59
2023/10/22 09:12:15;;;;;;;2.75;1.42;;;14.50;99.90;;;-141.84;71.99;19740.69;4966359;28;20329;-61
2023/10/22 09:14:44;;;;;;;3.60;1.70;;;14.50;99.90;;;-141.84;70.98;19704.09;4964525;28;20227;-61
2023/10/22 09:17:17;;;;;;;3.10;1.40;;;14.60;99.90;;;-141.84;68.10;19821.97;4964221;28;20294;-61
2023/10/22 09:19:48;;;;;;;3.20;1.75;;;14.80;99.90;;;-141.84;67.25;19899.19;4964088;28;20235;-61
2023/10/22 09:22:25;;;;;;;3.05;1.58;;;15.10;99.90;;;-141.84;66.17;19876.84;4956428;28;20267;-61
2023/10/22 09:24:56;;;;;;;3.35;1.50;;;15.30;99.90;;;-141.84;65.88;19887.00;4970553;28;20243;-60
2023/10/22 09:27:26;;;;;;;1.52;1.30;;;15.30;99.90;;;-141.84;65.24;19939.84;4987199;28;20226;-60
2023/10/22 09:29:55;;;;;;;3.03;1.65;;;15.40;99.90;;;-141.84;64.50;20049.59;4985710;28;20227;-61
2023/10/22 09:32:24;;;;;;;7.28;1.55;;;15.70;99.90;;;-141.84;63.98;19998.78;4987052;28;20238;-61
2023/10/22 09:34:54;;;;;;;2.20;1.20;;;15.70;99.90;;;-141.84;64.91;19952.03;4968054;28;20282;-59
2023/10/22 09:37:24;;;;;;;3.65;1.80;;;15.70;99.90;;;-141.84;65.41;19980.50;4971530;28;20251;-61
2023/10/22 09:39:52;;;;;;;2.63;1.45;;;15.70;99.90;;;-141.84;64.38;19996.75;4986060;28;20870;-61
2023/10/22 09:42:22;;;;;;;3.55;1.45;;;15.80;99.90;;;-141.84;64.35;19976.44;4980795;28;20413;-61
2023/10/22 09:44:50;;;;;;;3.97;1.60;;;15.60;99.90;;;-141.84;64.34;20010.97;4986814;28;20231;-60
2023/10/22 09:47:21;;;;;;;3.85;1.27;;;15.70;99.90;;;-141.84;62.71;20090.25;4987224;28;20239;-60
2023/10/22 09:49:55;;;;;;;4.13;1.50;;;15.90;99.90;;;-141.84;60.76;20185.78;4986568;28;20243;-60
2023/10/22 09:52:28;;;;;;;1.88;1.20;;;16.20;99.90;;;-141.84;61.00;20137.00;4983147;28;20246;-61
2023/10/22 09:54:59;;;;;;;2.80;1.33;;;16.20;99.90;;;-141.84;61.57;20116.66;4985982;28;20213;-62
2023/10/22 09:57:31;;;;;;;2.72;1.50;;;16.10;99.90;;;-141.84;62.21;20110.56;4986938;28;20302;-60
2023/10/22 10:00:07;;;;;;;2.35;1.60;;;16.10;99.90;;;-141.84;62.29;20069.94;4979058;28;20269;-62
2023/10/22 10:02:38;;;;;;;2.83;1.33;;;16.10;99.90;;;-141.84;62.45;20096.34;4986579;28;20579;-61
2023/10/22 10:05:09;;;;;;;4.80;1.48;;;16.00;99.90;;;-141.84;61.95;20069.94;4985489;28;20234;-60
2023/10/22 10:07:40;;;;;;;2.80;1.30;;;15.90;99.90;;;-141.84;62.75;20017.09;4986282;28;20315;-60